Time;durP1;ratioP1;P1;durP2;ratioP2;P2;SDS_P1;SDS_P2;PMS_P1;PMS_P2;Temp;Humidity;BMP_temperature;BMP_pressure;BME280_temperature;BME280_humidity;BME280_pressure;Samples;Min_cycle;Max_cycle;Signal;HPM_P1;HPM_P2
2021/08/15 00:01:11;;;;;;;10.30;6.20;;;;;;;21.67;56.02;99906.50;3377359;29;20055;-76
2021/08/15 00:02:52;;;;;;;12.38;6.60;;;;;;;21.68;55.95;99910.03;3375802;29;20052;-76
2021/08/15 00:04:33;;;;;;;10.17;5.50;;;;;;;21.69;55.89;99906.25;3373474;29;20147;-76
2021/08/15 00:06:13;;;;;;;9.83;5.77;;;;;;;21.69;55.64;99909.78;3377356;29;20048;-75
2021/08/15 00:07:54;;;;;;;12.57;6.10;;;;;;;21.64;56.17;99907.03;3377336;29;20496;-76
2021/08/15 00:09:35;;;;;;;9.53;5.30;;;;;;;21.59;55.89;99904.28;3377399;29;20040;-75
2021/08/15 00:11:15;;;;;;;10.43;6.43;;;;;;;21.61;56.04;99907.56;3377200;29;20047;-75
2021/08/15 00:12:56;;;;;;;11.27;5.97;;;;;;;21.56;56.17;99904.81;3376997;29;20037;-74
2021/08/15 00:14:37;;;;;;;10.55;5.75;;;;;;;21.56;56.04;99902.13;3377618;29;20048;-75
2021/08/15 00:16:18;;;;;;;16.90;5.97;;;;;;;21.54;56.13;99898.84;3377074;29;20052;-76
2021/08/15 00:17:59;;;;;;;10.80;5.83;;;;;;;21.53;56.07;99899.94;3377066;29;20076;-75
2021/08/15 00:19:40;;;;;;;9.95;5.30;;;;;;;21.51;56.28;99902.09;3377250;29;20180;-76
2021/08/15 00:21:20;;;;;;;10.13;5.83;;;;;;;21.52;56.03;99892.84;3377051;29;20060;-74
2021/08/15 00:23:01;;;;;;;13.10;6.13;;;;;;;21.50;55.89;99893.13;3376228;29;20140;-74
2021/08/15 00:24:42;;;;;;;11.00;5.87;;;;;;;21.54;56.29;99893.41;3376287;29;20413;-76
2021/08/15 00:26:23;;;;;;;11.97;5.50;;;;;;;21.52;56.30;99888.25;3375751;29;20048;-76
2021/08/15 00:28:04;;;;;;;13.43;6.33;;;;;;;21.51;56.18;99896.66;3376096;29;20037;-74
2021/08/15 00:29:44;;;;;;;16.90;6.27;;;;;;;21.49;56.27;99888.78;3376896;29;20139;-75
2021/08/15 00:31:27;;;;;;;10.10;5.83;;;;;;;21.47;56.46;99890.91;3377031;29;20044;-75
2021/08/15 00:33:14;;;;;;;15.13;6.43;;;;;;;21.46;56.56;99888.50;3376823;29;20040;-75
2021/08/15 00:34:54;;;;;;;13.33;5.43;;;;;;;21.46;56.60;99891.19;3376697;29;20070;-76
2021/08/15 00:36:36;;;;;;;17.87;5.70;;;;;;;21.42;56.66;99884.66;3376941;29;20415;-74
2021/08/15 00:38:17;;;;;;;13.25;5.70;;;;;;;21.42;56.86;99884.66;3376696;29;20439;-75
2021/08/15 00:39:58;;;;;;;13.33;6.20;;;;;;;21.41;56.71;99881.13;3376930;29;20051;-76
2021/08/15 00:41:39;;;;;;;9.63;5.60;;;;;;;21.41;56.71;99880.31;3377098;29;20486;-76
2021/08/15 00:43:19;;;;;;;19.00;6.90;;;;;;;21.45;57.00;99881.41;3375468;29;20096;-74
2021/08/15 00:45:16;;;;;;;13.13;5.65;;;;;;;21.44;56.68;99879.78;3375187;29;20048;-74
2021/08/15 00:46:57;;;;;;;16.97;7.17;;;;;;;21.43;56.74;99880.88;3376835;29;20052;-76
2021/08/15 00:48:38;;;;;;;12.03;5.60;;;;;;;21.41;56.91;99880.31;3376936;29;20044;-76
2021/08/15 00:50:19;;;;;;;11.98;5.53;;;;;;;21.37;56.92;99873.75;3375800;29;20048;-74
2021/08/15 00:52:00;;;;;;;11.25;5.40;;;;;;;21.33;57.02;99873.47;3376731;29;20051;-74
2021/08/15 00:53:41;;;;;;;9.30;5.60;;;;;;;21.32;56.95;99872.66;3375393;29;20045;-74
2021/08/15 00:55:22;;;;;;;8.05;4.72;;;;;;;21.32;56.84;99869.09;3375494;29;20524;-75
2021/08/15 00:57:03;;;;;;;7.50;5.10;;;;;;;21.32;56.76;99869.94;3376711;29;20052;-75
2021/08/15 00:58:44;;;;;;;10.03;5.57;;;;;;;21.32;56.68;99875.34;3376785;29;20139;-75
2021/08/15 01:00:24;;;;;;;7.97;4.83;;;;;;;21.31;56.91;99872.91;3376958;29;20925;-76
2021/08/15 01:02:07;;;;;;;12.40;6.17;;;;;;;21.28;56.84;99870.72;3376297;29;20412;-74
2021/08/15 01:03:48;;;;;;;9.70;5.28;;;;;;;21.26;57.07;99862.00;3376618;29;20127;-74
2021/08/15 01:05:29;;;;;;;17.90;6.37;;;;;;;21.26;56.95;99868.25;3376407;29;20037;-74
2021/08/15 01:07:10;;;;;;;10.75;6.07;;;;;;;21.25;57.18;99863.91;3376461;29;20045;-75
2021/08/15 01:08:51;;;;;;;9.53;4.77;;;;;;;21.24;56.95;99867.69;3375710;29;20072;-75
2021/08/15 01:10:33;;;;;;;8.93;5.47;;;;;;;21.23;57.29;99866.06;3372986;29;20618;-75
2021/08/15 01:12:14;;;;;;;10.85;5.20;;;;;;;21.25;57.10;99861.22;3375933;29;20048;-75
2021/08/15 01:13:54;;;;;;;14.97;5.47;;;;;;;21.22;56.92;99861.72;3375812;29;20072;-75
2021/08/15 01:15:35;;;;;;;10.07;4.87;;;;;;;21.21;56.74;99860.09;3376497;29;20092;-75
2021/08/15 01:17:17;;;;;;;12.70;5.53;;;;;;;21.21;56.98;99862.78;3376658;29;20045;-74
2021/08/15 01:18:57;;;;;;;;;;;;;;;21.28;56.44;99862.56;3377184;29;20044;-74
2021/08/15 01:20:38;;;;;;;10.93;5.13;;;;;;;21.24;56.54;99864.97;3376470;29;20264;-75
2021/08/15 01:22:22;;;;;;;11.10;5.00;;;;;;;21.25;56.73;99865.81;3376310;29;20073;-75
2021/08/15 01:24:04;;;;;;;7.40;5.15;;;;;;;21.24;56.76;99858.75;3376616;29;20068;-76
2021/08/15 01:25:44;;;;;;;;;;;;;;;21.28;56.31;99868.00;3376820;29;20052;-76
2021/08/15 01:27:26;;;;;;;5.60;4.30;;;;;;;21.24;56.51;99864.16;3376911;29;20031;-76
2021/08/15 01:29:07;;;;;;;7.30;4.50;;;;;;;21.23;56.59;99868.78;3376459;29;20045;-76
2021/08/15 01:30:48;;;;;;;9.55;4.82;;;;;;;21.23;56.60;99863.34;3376356;29;20478;-74
2021/08/15 01:32:29;;;;;;;15.68;5.55;;;;;;;21.21;56.75;99854.66;3375902;29;20039;-74
2021/08/15 01:34:10;;;;;;;8.23;4.77;;;;;;;21.13;56.60;99852.44;3376508;29;20507;-74
2021/08/15 01:35:52;;;;;;;9.53;4.77;;;;;;;21.17;56.68;99853.56;3376461;29;20067;-75
2021/08/15 01:37:33;;;;;;;10.65;5.60;;;;;;;21.15;56.79;99863.03;3376221;29;20559;-76
2021/08/15 01:39:14;;;;;;;6.83;5.93;;;;;;;21.12;56.67;99858.94;3376673;29;20092;-75
2021/08/15 01:40:55;;;;;;;6.57;5.27;;;;;;;21.05;56.89;99852.94;3376607;29;20041;-75
2021/08/15 01:42:35;;;;;;;9.17;5.03;;;;;;;21.02;56.65;99861.59;3376749;29;20188;-76
2021/08/15 01:44:16;;;;;;;9.23;5.43;;;;;;;21.02;57.00;99861.59;3377580;29;20049;-75
2021/08/15 01:45:57;;;;;;;12.97;5.80;;;;;;;21.02;57.04;99864.28;3377845;29;20112;-76
2021/08/15 01:47:38;;;;;;;9.37;5.03;;;;;;;21.01;57.05;99870.78;3376240;29;20044;-75
2021/08/15 01:49:18;;;;;;;8.37;4.57;;;;;;;21.00;57.28;99863.72;3376129;29;20041;-75
2021/08/15 01:50:59;;;;;;;12.70;5.00;;;;;;;20.99;57.22;99862.06;3376454;29;20453;-74
2021/08/15 01:52:40;;;;;;;9.30;5.23;;;;;;;20.98;57.01;99866.69;3376246;29;20043;-75
2021/08/15 01:54:20;;;;;;;11.37;4.93;;;;;;;20.99;56.94;99864.78;3376300;29;20053;-75
2021/08/15 01:56:02;;;;;;;5.37;4.10;;;;;;;21.04;56.91;99857.53;3375347;29;20092;-75
2021/08/15 01:57:42;;;;;;;8.15;5.28;;;;;;;21.09;57.12;99862.16;3376075;29;20045;-75
2021/08/15 01:59:26;;;;;;;5.50;4.30;;;;;;;21.12;57.07;99864.38;3376424;29;20052;-77
2021/08/15 02:01:07;;;;;;;8.60;4.53;;;;;;;21.15;57.15;99860.31;3376384;29;20049;-75
2021/08/15 02:02:48;;;;;;;8.00;5.07;;;;;;;21.17;57.40;99860.84;3376125;29;20571;-75
2021/08/15 02:04:29;;;;;;;9.73;5.47;;;;;;;21.15;57.20;99866.56;3376412;29;20044;-76
2021/08/15 02:06:10;;;;;;;8.20;5.53;;;;;;;21.13;57.09;99857.84;3376609;29;20063;-76
2021/08/15 02:07:54;;;;;;;7.43;5.47;;;;;;;21.13;57.12;99869.50;3376362;29;20048;-75
2021/08/15 02:09:35;;;;;;;8.05;5.18;;;;;;;21.13;57.07;99857.84;3376541;29;20599;-74
2021/08/15 02:11:17;;;;;;;8.90;4.50;;;;;;;21.03;57.33;99842.34;3375979;29;20040;-74
2021/08/15 02:12:59;;;;;;;10.48;5.18;;;;;;;21.04;57.24;99848.56;3376285;29;20059;-76
2021/08/15 02:14:39;;;;;;;;;;;;;;;21.18;56.96;99862.50;3376650;29;20504;-75
2021/08/15 02:16:20;;;;;;;7.28;5.00;;;;;;;21.16;57.11;99857.34;3374988;29;19919;-74
2021/08/15 02:18:02;;;;;;;7.57;5.10;;;;;;;21.16;56.87;99859.22;3377203;29;20048;-75
2021/08/15 02:19:42;;;;;;;10.07;4.93;;;;;;;21.17;57.26;99858.97;3377722;29;20076;-74
2021/08/15 02:21:23;;;;;;;6.88;5.03;;;;;;;21.20;57.53;99858.47;3377998;29;20096;-76
2021/08/15 02:23:04;;;;;;;8.10;5.50;;;;;;;21.21;56.94;99854.66;3378433;29;20044;-74
2021/08/15 02:24:45;;;;;;;11.07;6.78;;;;;;;21.24;56.74;99858.75;3378483;29;20048;-75
2021/08/15 02:26:25;;;;;;;10.07;6.87;;;;;;;21.21;56.61;99849.22;3378677;29;20599;-77
2021/08/15 02:28:07;;;;;;;10.60;7.13;;;;;;;21.17;56.94;99848.16;3378598;29;20522;-75
2021/08/15 02:29:48;;;;;;;10.45;6.45;;;;;;;21.11;56.66;99855.41;3378334;29;20476;-75
2021/08/15 02:31:28;;;;;;;11.38;5.47;;;;;;;21.04;56.67;99845.84;3378501;29;20052;-74
2021/08/15 02:33:09;;;;;;;10.83;5.73;;;;;;;21.00;56.79;99844.75;3377866;29;20060;-74
2021/08/15 02:34:50;;;;;;;8.63;5.27;;;;;;;20.97;56.82;99839.88;3378271;29;20048;-75
2021/08/15 02:36:30;;;;;;;10.93;5.13;;;;;;;21.00;56.88;99844.75;3378356;29;20135;-74
2021/08/15 02:38:11;;;;;;;11.10;5.43;;;;;;;21.01;56.94;99838.25;3378298;29;20056;-74
2021/08/15 02:39:52;;;;;;;11.60;5.90;;;;;;;21.05;57.03;99847.50;3378149;29;20099;-75
2021/08/15 02:41:33;;;;;;;7.43;5.43;;;;;;;21.09;56.91;99845.88;3377389;29;20103;-74
2021/08/15 02:43:13;;;;;;;7.45;4.65;;;;;;;21.11;56.83;99841.03;3377462;29;20504;-74
2021/08/15 02:44:56;;;;;;;11.27;5.32;;;;;;;21.17;56.87;99848.16;3378133;29;20050;-74
2021/08/15 02:46:36;;;;;;;6.55;4.65;;;;;;;21.16;56.53;99837.53;3378519;29;20508;-74
2021/08/15 02:48:17;;;;;;;7.10;5.07;;;;;;;21.21;56.45;99841.09;3378008;29;20045;-74
2021/08/15 02:49:58;;;;;;;7.68;5.18;;;;;;;21.22;56.41;99840.03;3378207;29;20060;-74
2021/08/15 02:51:38;;;;;;;7.87;5.10;;;;;;;21.22;56.47;99850.03;3376936;29;20551;-75
2021/08/15 02:53:19;;;;;;;8.50;5.47;;;;;;;21.17;56.65;99844.59;3363969;29;20096;-74
2021/08/15 02:55:03;;;;;;;8.27;4.77;;;;;;;21.11;57.10;99843.75;3372151;29;20060;-75
2021/08/15 02:56:43;;;;;;;11.65;5.32;;;;;;;21.10;56.76;99842.13;3377960;29;20041;-75
2021/08/15 02:58:24;;;;;;;6.53;5.17;;;;;;;21.12;56.83;99850.81;3377245;29;20040;-75
2021/08/15 03:00:07;;;;;;;6.83;5.17;;;;;;;21.14;56.87;99848.63;3377800;29;20048;-74
2021/08/15 03:01:47;;;;;;;19.20;6.10;;;;;;;21.15;56.73;99844.88;3377591;29;20040;-75
2021/08/15 03:03:28;;;;;;;10.67;5.33;;;;;;;21.16;56.50;99845.69;3378040;29;20407;-76
2021/08/15 03:05:10;;;;;;;7.50;4.77;;;;;;;21.15;56.64;99838.63;3377206;29;20131;-74
2021/08/15 03:06:50;;;;;;;9.63;4.95;;;;;;;21.12;56.42;99842.69;3378145;29;20505;-76
2021/08/15 03:08:31;;;;;;;11.38;5.07;;;;;;;21.07;56.79;99837.22;3380056;29;20056;-75
2021/08/15 03:10:12;;;;;;;5.37;4.43;;;;;;;21.10;56.62;99842.13;3380665;29;20426;-75
2021/08/15 03:11:52;;;;;;;8.70;5.18;;;;;;;21.10;56.63;99836.69;3380226;29;20108;-74
2021/08/15 03:13:33;;;;;;;13.73;5.07;;;;;;;21.13;56.68;99838.88;3380607;29;20556;-76
2021/08/15 03:15:14;;;;;;;8.43;5.28;;;;;;;21.16;56.99;99838.34;3380282;29;20048;-76
2021/08/15 03:16:54;;;;;;;8.37;4.73;;;;;;;21.21;56.63;99843.81;3378144;29;20119;-75
2021/08/15 03:18:35;;;;;;;7.70;5.03;;;;;;;21.22;56.52;99845.47;3377914;29;20048;-74
2021/08/15 03:20:16;;;;;;;7.70;4.70;;;;;;;21.23;56.66;99841.66;3377901;29;20049;-76
2021/08/15 03:21:56;;;;;;;6.57;4.50;;;;;;;21.26;56.37;99838.44;3377450;29;20386;-75
2021/08/15 03:23:37;;;;;;;7.23;4.87;;;;;;;21.30;56.41;99839.56;3376983;29;20457;-76
2021/08/15 03:25:18;;;;;;;8.57;4.97;;;;;;;21.28;56.53;99836.28;3377460;29;20536;-76
2021/08/15 03:26:58;;;;;;;7.90;4.57;;;;;;;21.33;56.40;99838.22;3378133;29;20586;-75
2021/08/15 03:28:39;;;;;;;8.07;4.30;;;;;;;21.39;56.58;99844.50;3377276;29;20060;-76
2021/08/15 03:30:20;;;;;;;6.67;4.60;;;;;;;21.43;56.46;99834.78;3377675;29;20037;-76
2021/08/15 03:32:01;;;;;;;5.88;4.32;;;;;;;21.49;55.89;99839.16;3378061;29;20111;-77
2021/08/15 03:33:41;;;;;;;6.20;4.80;;;;;;;21.49;55.82;99834.53;3378664;29;20045;-76
2021/08/15 03:35:24;;;;;;;11.00;5.23;;;;;;;21.49;56.03;99839.16;3377997;29;20116;-75
2021/08/15 03:37:06;;;;;;;10.50;5.20;;;;;;;21.48;55.93;99823.97;3377811;29;20044;-75
2021/08/15 03:38:46;;;;;;;11.03;5.27;;;;;;;21.52;55.97;99827.75;3377623;29;20099;-75
2021/08/15 03:40:28;;;;;;;;;;;;;;;21.61;55.59;99834.34;3377730;29;20045;-74
2021/08/15 03:42:09;;;;;;;6.53;3.78;;;;;;;21.62;55.65;99835.13;3376991;29;19931;-75
2021/08/15 03:43:49;;;;;;;7.53;4.53;;;;;;;21.65;55.46;99826.47;3377624;29;20104;-75
2021/08/15 03:45:30;;;;;;;9.20;4.67;;;;;;;21.67;55.39;99825.13;3377324;29;20523;-74
2021/08/15 03:47:11;;;;;;;7.40;5.43;;;;;;;21.68;55.14;99834.06;3363706;29;20056;-75
2021/08/15 03:48:51;;;;;;;8.77;4.90;;;;;;;21.70;55.34;99821.88;3374568;29;20550;-76
2021/08/15 03:50:33;;;;;;;7.20;4.85;;;;;;;21.74;55.19;99827.59;3377174;29;20547;-74
2021/08/15 03:52:14;;;;;;;7.33;4.80;;;;;;;21.76;55.14;99823.56;3377205;29;20089;-76
2021/08/15 03:53:55;;;;;;;8.37;4.60;;;;;;;21.77;55.11;99819.75;3375429;29;20052;-75
2021/08/15 03:55:35;;;;;;;6.37;4.37;;;;;;;21.79;55.30;99824.91;3376474;29;20045;-75
2021/08/15 03:57:17;;;;;;;9.27;4.60;;;;;;;21.77;55.10;99829.78;3377345;29;20052;-75
2021/08/15 03:58:58;;;;;;;7.90;5.00;;;;;;;21.74;54.79;99831.13;3377423;29;20044;-76
2021/08/15 04:00:42;;;;;;;7.37;4.47;;;;;;;21.78;55.37;99820.56;3377095;29;20424;-75
2021/08/15 04:02:22;;;;;;;6.18;4.05;;;;;;;21.83;55.14;99825.19;3377174;29;20053;-75
2021/08/15 04:04:03;;;;;;;4.43;3.67;;;;;;;21.87;55.08;99832.53;3376995;29;20116;-75
2021/08/15 04:05:44;;;;;;;5.87;4.80;;;;;;;21.93;55.08;99828.75;3376953;29;20044;-75
2021/08/15 04:07:25;;;;;;;5.50;4.07;;;;;;;22.04;55.00;99824.16;3377050;29;20595;-75
2021/08/15 04:09:05;;;;;;;6.57;4.70;;;;;;;22.14;55.01;99826.91;3376230;29;20044;-77
2021/08/15 04:10:46;;;;;;;7.00;4.60;;;;;;;22.18;54.48;99830.72;3376946;29;20043;-75
2021/08/15 04:12:27;;;;;;;5.33;4.23;;;;;;;22.23;54.33;99829.13;3377283;29;20135;-74
2021/08/15 04:14:08;;;;;;;5.47;4.10;;;;;;;22.28;54.76;99824.56;3377107;29;20128;-74
2021/08/15 04:15:48;;;;;;;5.93;4.37;;;;;;;22.35;54.38;99825.09;3376374;29;20535;-75
2021/08/15 04:17:30;;;;;;;9.57;4.83;;;;;;;22.41;54.22;99826.75;3377105;29;20051;-74
2021/08/15 04:19:11;;;;;;;5.97;4.15;;;;;;;22.40;53.90;99829.72;3376277;29;20043;-76
2021/08/15 04:20:51;;;;;;;7.17;4.63;;;;;;;22.38;53.82;99819.13;3376784;29;20052;-73
2021/08/15 04:22:32;;;;;;;8.27;4.80;;;;;;;22.35;53.73;99821.56;3377095;29;20071;-75
2021/08/15 04:24:13;;;;;;;8.87;4.57;;;;;;;22.38;54.19;99823.72;3377138;29;20416;-76
2021/08/15 04:25:53;;;;;;;6.37;3.97;;;;;;;22.43;54.00;99815.59;3376591;29;20058;-75
2021/08/15 04:27:34;;;;;;;3.77;3.37;;;;;;;22.43;53.70;99816.44;3377312;29;20630;-76
2021/08/15 04:29:15;;;;;;;6.77;4.00;;;;;;;22.49;53.38;99814.53;3376341;29;20056;-76
2021/08/15 04:30:55;;;;;;;6.47;4.43;;;;;;;22.54;53.51;99811.81;3377125;29;20096;-77
2021/08/15 04:32:36;;;;;;;7.17;5.20;;;;;;;22.59;53.08;99822.69;3377278;29;20092;-74
2021/08/15 04:34:17;;;;;;;5.70;3.67;;;;;;;22.57;53.01;99816.69;3376857;29;20048;-76
2021/08/15 04:35:58;;;;;;;6.10;3.60;;;;;;;22.61;52.82;99811.53;3376945;29;20414;-74
2021/08/15 04:37:38;;;;;;;5.53;3.50;;;;;;;22.62;52.76;99811.28;3376716;29;20101;-74
2021/08/15 04:39:19;;;;;;;3.53;3.20;;;;;;;22.70;52.86;99803.66;3376251;29;20489;-76
2021/08/15 04:41:00;;;;;;;6.13;3.50;;;;;;;22.76;52.75;99808.00;3376497;29;20461;-74
2021/08/15 04:42:41;;;;;;;4.80;3.37;;;;;;;22.82;52.48;99806.91;3377200;29;20044;-74
2021/08/15 04:44:21;;;;;;;5.80;3.73;;;;;;;22.87;52.31;99809.63;3377360;29;20119;-76
2021/08/15 04:46:02;;;;;;;6.27;3.63;;;;;;;22.93;52.06;99805.03;3377360;29;20139;-76
2021/08/15 04:47:43;;;;;;;5.73;4.73;;;;;;;23.01;52.54;99799.06;3377213;29;20045;-76
2021/08/15 04:49:23;;;;;;;6.10;3.20;;;;;;;23.07;52.32;99793.31;3376836;29;20579;-78
2021/08/15 04:51:04;;;;;;;7.93;3.53;;;;;;;23.14;51.99;99803.13;3376680;29;20044;-73
2021/08/15 04:52:45;;;;;;;3.73;3.43;;;;;;;23.18;51.46;99798.75;3377275;29;20044;-76
2021/08/15 04:54:28;;;;;;;4.70;3.27;;;;;;;23.22;50.80;99788.94;3377154;29;20048;-75
2021/08/15 04:56:09;;;;;;;3.85;3.00;;;;;;;23.22;50.51;99780.78;3377490;29;20052;-75
2021/08/15 04:57:50;;;;;;;4.27;3.33;;;;;;;23.34;49.62;99791.34;3377505;29;20078;-74
2021/08/15 04:59:30;;;;;;;4.87;2.80;;;;;;;23.39;49.13;99789.47;3377075;29;20048;-76
2021/08/15 05:01:11;;;;;;;3.30;2.70;;;;;;;23.43;48.60;99787.78;3377063;29;20086;-77
2021/08/15 05:02:52;;;;;;;3.67;3.27;;;;;;;23.47;48.49;99788.06;3376944;29;20048;-75
2021/08/15 05:04:32;;;;;;;6.03;2.93;;;;;;;23.49;48.78;99786.69;3377079;29;20052;-76
2021/08/15 05:06:13;;;;;;;6.57;3.57;;;;;;;23.50;48.94;99790.22;3376786;29;20040;-76
2021/08/15 05:07:54;;;;;;;6.57;4.13;;;;;;;23.52;49.02;99788.84;3376453;29;20592;-74
2021/08/15 05:09:34;;;;;;;5.83;3.60;;;;;;;23.51;49.11;99781.78;3376601;29;20048;-74
2021/08/15 05:11:17;;;;;;;6.87;3.37;;;;;;;23.54;48.97;99790.47;3376598;29;20124;-74
2021/08/15 05:12:57;;;;;;;5.90;3.55;;;;;;;23.52;48.79;99785.34;3376788;29;20492;-76
2021/08/15 05:14:38;;;;;;;6.77;3.43;;;;;;;23.52;48.59;99791.59;3376724;29;20176;-74
2021/08/15 05:16:19;;;;;;;3.93;3.27;;;;;;;23.55;48.51;99789.41;3375445;29;20048;-75
2021/08/15 05:17:59;;;;;;;4.47;3.23;;;;;;;23.57;48.76;99788.03;3376408;29;20074;-74
2021/08/15 05:19:40;;;;;;;5.80;3.97;;;;;;;23.61;48.78;99788.28;3376114;29;20048;-74
2021/08/15 05:21:21;;;;;;;14.60;4.20;;;;;;;23.65;49.12;99784.72;3376649;29;20067;-75
2021/08/15 05:23:02;;;;;;;10.13;4.20;;;;;;;23.69;49.29;99782.25;3376718;29;20135;-75
2021/08/15 05:24:42;;;;;;;9.37;3.83;;;;;;;23.72;49.17;99781.72;3376561;29;20052;-75
2021/08/15 05:26:23;;;;;;;6.70;2.80;;;;;;;23.79;48.72;99782.22;3376354;29;20049;-76
2021/08/15 05:28:04;;;;;;;10.77;3.20;;;;;;;23.81;48.64;99780.06;3376039;29;20100;-75
2021/08/15 05:29:45;;;;;;;5.32;3.00;;;;;;;23.84;48.78;99776.78;3376211;29;20055;-74
2021/08/15 05:31:26;;;;;;;10.20;3.20;;;;;;;23.87;48.53;99773.47;3376798;29;20099;-76
2021/08/15 05:33:06;;;;;;;4.70;2.70;;;;;;;23.92;48.13;99778.91;3376866;29;20051;-75
2021/08/15 05:34:47;;;;;;;11.83;3.27;;;;;;;24.00;47.89;99771.25;3376910;29;20445;-74
2021/08/15 05:36:28;;;;;;;4.27;2.80;;;;;;;24.07;47.73;99763.56;3380085;29;20059;-73
2021/08/15 05:38:08;;;;;;;10.67;3.83;;;;;;;24.08;47.83;99766.00;3393714;29;20048;-74
2021/08/15 05:39:49;;;;;;;7.70;3.90;;;;;;;24.16;47.33;99756.41;3393188;29;20048;-74
2021/08/15 05:41:31;;;;;;;3.95;2.90;;;;;;;24.26;47.21;99759.06;3393942;29;20059;-75
2021/08/15 05:43:12;;;;;;;6.20;3.20;;;;;;;24.34;47.27;99761.22;3393851;29;20096;-74
2021/08/15 05:44:52;;;;;;;6.77;3.33;;;;;;;24.38;47.05;99751.34;3392880;29;20039;-74
2021/08/15 05:46:33;;;;;;;10.10;3.43;;;;;;;24.43;47.13;99766.06;3376741;29;20052;-74
2021/08/15 05:48:14;;;;;;;5.83;2.67;;;;;;;24.43;47.02;99753.22;3375552;29;20048;-76
2021/08/15 05:49:54;;;;;;;5.63;3.03;;;;;;;24.43;47.04;99752.44;3372508;29;20057;-75
2021/08/15 05:51:35;;;;;;;6.13;3.23;;;;;;;24.42;46.92;99751.63;3365681;29;20412;-74
2021/08/15 05:53:16;;;;;;;7.47;3.30;;;;;;;24.45;47.03;99753.00;3364916;29;20128;-74
2021/08/15 05:54:57;;;;;;;5.33;2.90;;;;;;;24.49;46.92;99751.31;3366066;29;20535;-75
2021/08/15 05:56:37;;;;;;;8.70;3.70;;;;;;;24.53;46.91;99744.19;3365094;29;20080;-75
2021/08/15 05:58:18;;;;;;;4.03;2.83;;;;;;;24.63;46.89;99751.44;3365731;29;20131;-74
2021/08/15 05:59:59;;;;;;;6.13;3.73;;;;;;;24.71;46.67;99754.38;3376600;29;20068;-76
2021/08/15 06:01:39;;;;;;;11.00;3.50;;;;;;;24.74;46.30;99750.28;3367294;29;20541;-76
2021/08/15 06:03:20;;;;;;;7.33;2.90;;;;;;;24.76;46.50;99751.63;3369830;29;20052;-75
2021/08/15 06:05:01;;;;;;;6.33;3.40;;;;;;;24.83;46.62;99739.56;3372612;29;20411;-75
2021/08/15 06:06:41;;;;;;;5.73;2.60;;;;;;;24.87;46.03;99749.59;3370962;29;20049;-75
2021/08/15 06:08:22;;;;;;;9.50;3.50;;;;;;;24.89;45.76;99752.06;3370165;29;20041;-75
2021/08/15 06:10:05;;;;;;;10.90;3.60;;;;;;;24.91;45.97;99750.66;3370406;29;20044;-75
2021/08/15 06:11:46;;;;;;;7.28;3.35;;;;;;;25.03;46.16;99744.78;3371527;29;20049;-76
2021/08/15 06:13:27;;;;;;;6.80;3.20;;;;;;;25.13;45.84;99746.59;3367818;29;20461;-76
2021/08/15 06:15:13;;;;;;;6.30;2.60;;;;;;;25.18;45.01;99747.38;3367018;29;20048;-74
2021/08/15 06:16:54;;;;;;;5.97;2.90;;;;;;;25.27;45.25;99744.00;3371317;29;20048;-75
2021/08/15 06:18:35;;;;;;;5.07;3.27;;;;;;;25.34;44.75;99744.47;3372814;29;20676;-76
2021/08/15 06:20:15;;;;;;;6.47;2.90;;;;;;;25.46;44.52;99745.69;3366749;29;20044;-74
2021/08/15 06:21:56;;;;;;;7.97;3.40;;;;;;;25.63;44.69;99750.66;3371468;29;20513;-74
2021/08/15 06:23:37;;;;;;;4.88;2.72;;;;;;;25.76;44.11;99735.47;3374824;29;20048;-75
2021/08/15 06:25:19;;;;;;;4.13;2.70;;;;;;;25.92;43.80;99743.47;3373769;29;20048;-74
2021/08/15 06:27:00;;;;;;;4.43;3.05;;;;;;;26.07;43.51;99745.97;3368533;29;20230;-76
2021/08/15 06:28:40;;;;;;;5.85;3.30;;;;;;;26.20;43.54;99738.97;3372815;29;20044;-76
2021/08/15 06:30:24;;;;;;;7.67;3.57;;;;;;;26.38;43.08;99743.56;3372730;29;20052;-74
2021/08/15 06:32:05;;;;;;;7.35;3.28;;;;;;;26.56;43.09;99741.13;3371625;29;20480;-77
2021/08/15 06:33:46;;;;;;;4.32;3.15;;;;;;;26.69;42.89;99743.94;3369805;29;20044;-76
2021/08/15 06:35:27;;;;;;;5.37;3.40;;;;;;;26.76;42.16;99736.13;3369835;29;20463;-74
2021/08/15 06:37:09;;;;;;;5.43;3.17;;;;;;;26.80;42.19;99725.41;3376044;29;20421;-75
2021/08/15 06:38:50;;;;;;;6.13;3.55;;;;;;;26.88;41.90;99735.66;3371402;29;20045;-75
2021/08/15 06:40:30;;;;;;;5.67;3.07;;;;;;;26.93;42.41;99738.28;3370147;29;20090;-75
2021/08/15 06:42:11;;;;;;;6.60;3.30;;;;;;;27.03;41.85;99736.44;3369953;29;20055;-75
2021/08/15 06:43:52;;;;;;;7.03;3.47;;;;;;;27.14;41.57;99726.94;3371692;29;20098;-77
2021/08/15 06:45:33;;;;;;;5.83;3.30;;;;;;;27.23;41.59;99722.41;3372429;29;20513;-74
2021/08/15 06:47:14;;;;;;;6.00;3.90;;;;;;;27.35;41.49;99725.44;3375229;29;20048;-74
2021/08/15 06:48:54;;;;;;;7.43;3.10;;;;;;;27.48;41.48;99731.22;3371294;29;20063;-75
2021/08/15 06:50:36;;;;;;;10.17;3.47;;;;;;;27.61;41.02;99727.66;3372570;29;20048;-75
2021/08/15 06:52:16;;;;;;;6.70;3.45;;;;;;;27.74;40.95;99715.84;3371307;29;20052;-74
2021/08/15 06:53:57;;;;;;;7.90;4.03;;;;;;;27.89;41.15;99722.13;3368351;29;20604;-74
2021/08/15 06:55:38;;;;;;;10.03;3.60;;;;;;;28.03;40.86;99729.16;3376463;29;20036;-74
2021/08/15 06:57:18;;;;;;;10.80;3.53;;;;;;;28.15;40.79;99725.91;3369600;29;20056;-75
2021/08/15 06:58:59;;;;;;;7.10;4.40;;;;;;;28.28;40.44;99716.78;3370628;29;20045;-76
2021/08/15 07:00:40;;;;;;;16.00;4.47;;;;;;;28.36;40.27;99714.44;3372134;29;20426;-76
2021/08/15 07:02:20;;;;;;;6.87;3.93;;;;;;;28.44;40.49;99722.72;3367277;29;20049;-75
2021/08/15 07:04:01;;;;;;;8.17;3.87;;;;;;;28.56;40.60;99722.16;3369288;29;20568;-73
2021/08/15 07:05:43;;;;;;;8.35;3.83;;;;;;;28.69;40.09;99717.72;3372793;29;20432;-75
2021/08/15 07:07:24;;;;;;;13.73;4.20;;;;;;;28.77;39.64;99714.22;3367528;29;20135;-75
2021/08/15 07:09:04;;;;;;;13.47;4.03;;;;;;;28.79;39.57;99733.91;3367804;29;20080;-75
2021/08/15 07:10:45;;;;;;;11.43;4.50;;;;;;;28.83;39.20;99728.59;3368509;29;20092;-76
2021/08/15 07:12:26;;;;;;;21.23;5.70;;;;;;;28.88;39.39;99717.47;3368401;29;20044;-76
2021/08/15 07:14:06;;;;;;;10.60;4.03;;;;;;;28.96;39.74;99713.97;3371169;29;20344;-73
2021/08/15 07:15:47;;;;;;;13.27;3.77;;;;;;;29.02;39.16;99711.91;3369796;29;20473;-74
2021/08/15 07:17:28;;;;;;;19.10;4.80;;;;;;;29.08;38.99;99710.66;3372840;29;20045;-75
2021/08/15 07:19:09;;;;;;;13.75;4.53;;;;;;;29.11;38.84;99713.56;3366543;29;20061;-75
2021/08/15 07:20:53;;;;;;;13.77;3.97;;;;;;;29.22;38.87;99705.03;3371314;29;20603;-74
2021/08/15 07:22:35;;;;;;;9.32;3.95;;;;;;;29.36;38.55;99697.50;3372333;29;20092;-75
2021/08/15 07:24:16;;;;;;;;;;;;;;;29.57;39.21;99709.47;3369810;29;20415;-75
2021/08/15 07:25:56;;;;;;;10.05;3.30;;;;;;;29.64;38.66;99708.22;3370519;29;19931;-74
2021/08/15 07:27:37;;;;;;;14.37;4.43;;;;;;;29.72;38.18;99715.69;3371848;29;20045;-74
2021/08/15 07:29:19;;;;;;;11.53;4.33;;;;;;;29.76;37.79;99711.16;3369328;29;20093;-74
2021/08/15 07:31:00;;;;;;;10.52;3.78;;;;;;;29.81;37.79;99713.72;3368913;29;20037;-74
2021/08/15 07:32:52;;;;;;;8.73;3.77;;;;;;;29.91;37.66;99707.91;3371824;29;20052;-75
2021/08/15 07:34:33;;;;;;;5.00;3.53;;;;;;;29.94;37.33;99718.25;3371916;29;20565;-74
2021/08/15 07:36:13;;;;;;;9.07;3.77;;;;;;;30.07;37.38;99718.44;3372042;29;20092;-74
2021/08/15 07:37:54;;;;;;;13.30;3.92;;;;;;;30.15;37.35;99712.94;3365662;29;20072;-74
2021/08/15 07:39:35;;;;;;;17.30;4.80;;;;;;;30.20;36.84;99715.53;3371872;29;20520;-74
2021/08/15 07:41:16;;;;;;;5.37;3.73;;;;;;;30.28;37.00;99707.59;3371731;29;20045;-74
2021/08/15 07:42:57;;;;;;;9.40;3.63;;;;;;;30.29;36.44;99710.03;3371956;29;20068;-74
2021/08/15 07:44:38;;;;;;;6.40;3.47;;;;;;;30.28;36.25;99716.66;3369448;29;20599;-74
2021/08/15 07:46:19;;;;;;;12.10;4.17;;;;;;;30.28;36.37;99711.16;3371532;29;20044;-75
2021/08/15 07:48:01;;;;;;;8.27;3.27;;;;;;;30.40;36.71;99707.75;3365244;29;20144;-76
2021/08/15 07:49:42;;;;;;;7.53;3.58;;;;;;;30.51;36.63;99717.25;3376215;29;20045;-74
2021/08/15 07:51:22;;;;;;;7.53;3.20;;;;;;;30.69;35.94;99717.22;3369003;29;20537;-74
2021/08/15 07:53:15;;;;;;;7.97;4.03;;;;;;;30.86;35.57;99715.25;3368105;29;20932;-75
2021/08/15 07:54:56;;;;;;;5.60;2.90;;;;;;;31.02;35.61;99711.94;3370019;29;20097;-75